Time;durP1;ratioP1;P1;durP2;ratioP2;P2;SDS_P1;SDS_P2;PMS_P1;PMS_P2;Temp;Humidity;BMP_temperature;BMP_pressure;BME280_temperature;BME280_humidity;BME280_pressure;Samples;Min_cycle;Max_cycle;Signal;HPM_P1;HPM_P2
2022/08/28 00:00:48;;;;;;;20.90;16.10;;;;;;;17.76;100.00;100850.50;7398882;19;20510;-67
2022/08/28 00:03:17;;;;;;;22.88;17.05;;;;;;;17.75;100.00;100847.00;7396911;19;20027;-67
2022/08/28 00:05:48;;;;;;;26.70;17.98;;;;;;;17.77;100.00;100856.66;7396766;19;20039;-67
2022/08/28 00:08:18;;;;;;;22.75;17.45;;;;;;;17.76;100.00;100861.13;7399462;19;20026;-66
2022/08/28 00:10:47;;;;;;;25.77;18.40;;;;;;;17.77;100.00;100864.63;7398608;19;20017;-67
2022/08/28 00:13:19;;;;;;;29.30;17.67;;;;;;;17.78;100.00;100871.66;7398333;19;20014;-67
2022/08/28 00:15:49;;;;;;;23.65;17.83;;;;;;;17.77;100.00;100864.63;7396948;19;20014;-68
2022/08/28 00:18:18;;;;;;;24.80;18.15;;;;;;;17.78;100.00;100869.00;7398375;19;20074;-67
2022/08/28 00:20:50;;;;;;;23.50;17.60;;;;;;;17.77;100.00;100864.63;7396131;19;20516;-68
2022/08/28 00:23:19;;;;;;;24.33;17.88;;;;;;;17.77;100.00;100864.63;7398433;19;20084;-67
2022/08/28 00:25:47;;;;;;;27.70;17.98;;;;;;;17.79;100.00;100868.06;7398189;19;20508;-67
2022/08/28 00:28:14;;;;;;;25.75;17.50;;;;;;;17.80;100.00;100872.44;7398382;19;20023;-66
2022/08/28 00:30:45;;;;;;;30.92;19.10;;;;;;;17.81;100.00;100872.34;7396741;19;20015;-66
2022/08/28 00:33:15;;;;;;;28.83;19.65;;;;;;;17.81;100.00;100872.34;7398229;19;20018;-66
2022/08/28 00:35:45;;;;;;;27.20;19.48;;;;;;;17.82;100.00;100882.03;7396135;19;20485;-66
2022/08/28 00:38:18;;;;;;;35.20;19.02;;;;;;;17.81;100.00;100868.84;7398025;19;20018;-67
2022/08/28 00:40:49;;;;;;;26.07;20.33;;;;;;;17.80;100.00;100877.75;7398075;19;20025;-66
2022/08/28 00:43:33;;;;;;;27.00;19.35;;;;;;;17.78;100.00;100864.56;7396169;19;20018;-66
2022/08/28 00:46:02;;;;;;;27.20;18.52;;;;;;;17.78;100.00;100869.00;7397494;19;20074;-66
2022/08/28 00:48:31;;;;;;;26.52;19.85;;;;;;;17.78;100.00;100872.53;7395376;19;20015;-66
2022/08/28 00:53:44;;;;;;;21.35;17.17;;;;;;;17.74;100.00;100868.28;7396884;19;20015;-66
2022/08/28 00:56:14;;;;;;;26.10;17.73;;;;;;;17.74;100.00;100861.19;7397930;19;20492;-66
2022/08/28 00:58:46;;;;;;;24.90;17.33;;;;;;;17.72;100.00;100867.53;7395924;19;20031;-66
2022/08/28 01:01:15;;;;;;;21.08;16.90;;;;;;;17.70;100.00;100870.22;7397739;19;20026;-66
2022/08/28 01:03:45;;;;;;;21.00;17.33;;;;;;;17.68;100.00;100858.84;7395916;19;20019;-66
2022/08/28 01:06:16;;;;;;;26.05;17.00;;;;;;;17.65;100.00;100861.63;7396667;19;20389;-66
2022/08/28 01:08:48;;;;;;;24.80;15.68;;;;;;;17.65;100.00;100860.78;7397038;19;20024;-66
2022/08/28 01:11:18;;;;;;;22.02;16.02;;;;;;;17.61;100.00;100867.19;7395580;19;20019;-66
2022/08/28 01:13:49;;;;;;;23.02;15.73;;;;;;;17.57;100.00;100863.84;7396861;19;20042;-65
2022/08/28 01:16:21;;;;;;;15.35;13.00;;;;;;;17.52;100.00;100863.19;7396539;19;20011;-65
2022/08/28 01:18:53;;;;;;;17.00;13.80;;;;;;;17.49;100.00;100863.34;7397209;19;20019;-65
2022/08/28 01:21:28;;;;;;;19.60;13.85;;;;;;;17.42;100.00;100871.59;7396826;19;20010;-65
2022/08/28 01:24:04;;;;;;;18.13;13.35;;;;;;;17.39;100.00;100861.13;7395994;19;20011;-65
2022/08/28 01:26:33;;;;;;;19.63;15.85;;;;;;;17.36;100.00;100868.38;7396836;19;20415;-65
2022/08/28 01:29:23;;;;;;;21.92;14.73;;;;;;;17.35;100.00;100871.97;7395878;19;20343;-65
2022/08/28 01:31:52;;;;;;;21.52;15.13;;;;;;;17.33;100.00;100874.69;7394627;19;20015;-65
2022/08/28 01:34:34;;;;;;;15.95;13.02;;;;;;;17.32;100.00;100874.78;7394091;19;20018;-65
2022/08/28 01:37:02;;;;;;;18.45;11.57;;;;;;;17.30;100.00;100871.31;7396528;19;20014;-65
2022/08/28 01:39:33;;;;;;;17.13;11.05;;;;;;;17.26;99.39;100876.78;7394065;19;20019;-65
2022/08/28 01:42:05;;;;;;;15.73;11.25;;;;;;;17.22;100.00;100877.84;7393965;19;20481;-66
2022/08/28 01:44:34;;;;;;;15.82;11.25;;;;;;;17.19;99.45;100880.66;7394750;19;20019;-65
2022/08/28 01:47:02;;;;;;;17.08;10.95;;;;;;;17.16;99.58;100877.28;7395807;19;20023;-66
2022/08/28 01:49:31;;;;;;;19.48;11.70;;;;;;;17.13;99.82;100882.75;7395126;19;20036;-65
2022/08/28 01:52:00;;;;;;;17.15;9.70;;;;;;;17.07;98.62;100884.75;7395601;19;20015;-65
2022/08/28 01:54:29;;;;;;;15.85;9.20;;;;;;;17.03;97.64;100885.81;7394411;19;20031;-65
2022/08/28 01:57:00;;;;;;;13.98;9.05;;;;;;;17.01;98.24;100886.81;7395238;19;20458;-65
2022/08/28 01:59:28;;;;;;;18.48;10.00;;;;;;;16.99;98.18;100886.03;7395865;19;20022;-65
2022/08/28 02:01:57;;;;;;;17.90;9.80;;;;;;;16.96;98.24;100889.69;7395356;19;20022;-65
2022/08/28 02:04:26;;;;;;;17.95;10.20;;;;;;;16.96;98.51;100896.75;7393848;19;20023;-65
2022/08/28 02:06:54;;;;;;;14.75;9.32;;;;;;;16.94;98.30;100894.19;7393232;19;20034;-65
2022/08/28 02:09:23;;;;;;;15.00;8.75;;;;;;;16.90;98.35;100885.50;7394797;19;20032;-66
2022/08/28 02:11:53;;;;;;;12.93;7.45;;;;;;;16.87;96.71;100898.00;7393467;19;20039;-66
2022/08/28 02:14:24;;;;;;;13.95;6.97;;;;;;;16.84;96.79;100893.72;7392831;19;20021;-66
2022/08/28 02:16:53;;;;;;;18.73;8.05;;;;;;;16.80;96.56;100896.59;7394556;19;20014;-65
2022/08/28 02:19:22;;;;;;;14.98;7.57;;;;;;;16.75;96.21;100895.00;7393221;19;20031;-65
2022/08/28 02:21:51;;;;;;;17.30;7.53;;;;;;;16.71;95.45;100892.56;7394618;19;20426;-65
2022/08/28 02:24:19;;;;;;;17.67;7.80;;;;;;;16.66;95.54;100902.50;7392606;19;20429;-65
2022/08/28 02:26:48;;;;;;;25.13;9.07;;;;;;;16.61;96.33;100892.97;7399221;19;20022;-65
2022/08/28 02:29:17;;;;;;;16.75;8.52;;;;;;;16.59;96.64;100896.59;7398933;19;20011;-66
2022/08/28 02:31:48;;;;;;;21.95;9.10;;;;;;;16.56;97.04;100889.66;7399272;19;20015;-65
2022/08/28 02:34:17;;;;;;;20.92;10.40;;;;;;;16.56;97.71;100894.09;7398439;19;20006;-65
2022/08/28 02:36:46;;;;;;;17.70;8.80;;;;;;;16.54;97.72;100891.53;7398896;19;20486;-65
2022/08/28 02:39:14;;;;;;;18.02;8.90;;;;;;;16.52;97.26;100905.78;7401930;19;20014;-65
2022/08/28 02:41:43;;;;;;;20.42;9.63;;;;;;;16.47;96.92;100891.84;7401930;19;20022;-65
2022/08/28 02:44:12;;;;;;;16.23;8.93;;;;;;;16.43;96.56;100893.81;7400262;19;20023;-65
2022/08/28 02:46:40;;;;;;;22.30;8.70;;;;;;;16.39;97.11;100894.84;7401409;19;20022;-65
2022/08/28 02:49:12;;;;;;;16.25;8.82;;;;;;;16.34;96.85;100895.06;7401154;19;20010;-66
2022/08/28 02:51:40;;;;;;;18.95;8.13;;;;;;;16.28;95.89;100887.38;7401811;19;20031;-66
2022/08/28 02:54:09;;;;;;;17.48;7.72;;;;;;;16.22;96.80;100887.66;7399986;19;20022;-65
2022/08/28 02:56:37;;;;;;;17.60;8.02;;;;;;;16.16;96.60;100894.03;7398544;19;20019;-65
2022/08/28 02:59:06;;;;;;;19.40;9.00;;;;;;;16.10;96.81;100897.81;7398481;19;20014;-65
2022/08/28 03:01:35;;;;;;;20.27;7.93;;;;;;;16.07;96.75;100887.34;7400567;19;20022;-65
2022/08/28 03:04:04;;;;;;;20.15;8.52;;;;;;;16.07;97.21;100905.03;7398329;19;20029;-65
2022/08/28 03:06:35;;;;;;;18.33;8.80;;;;;;;16.04;97.20;100903.38;7398194;19;20014;-65
2022/08/28 03:09:04;;;;;;;20.70;8.27;;;;;;;16.02;97.14;100905.22;7401061;19;20041;-66
2022/08/28 03:11:32;;;;;;;20.98;9.48;;;;;;;15.99;97.46;100894.78;7398048;19;20109;-65
2022/08/28 03:14:02;;;;;;;17.65;8.60;;;;;;;15.96;97.54;100901.06;7399695;19;20014;-66
2022/08/28 03:16:31;;;;;;;23.33;8.50;;;;;;;15.96;97.57;100908.13;7398117;19;20018;-65
2022/08/28 03:18:59;;;;;;;18.05;8.52;;;;;;;15.92;97.15;100906.53;7400733;19;20031;-65
2022/08/28 03:21:28;;;;;;;19.50;8.02;;;;;;;15.87;96.94;100906.75;7397632;19;20028;-65
2022/08/28 03:23:57;;;;;;;20.10;8.15;;;;;;;15.80;96.94;100911.38;7399329;19;20027;-66
2022/08/28 03:26:25;;;;;;;20.30;8.45;;;;;;;15.74;97.05;100913.41;7399933;19;20011;-66
2022/08/28 03:28:56;;;;;;;17.85;7.57;;;;;;;15.70;97.35;100910.03;7399991;19;20477;-66
2022/08/28 03:31:27;;;;;;;20.20;7.10;;;;;;;15.66;96.98;100913.72;7397222;19;20034;-66
2022/08/28 03:33:57;;;;;;;14.70;6.35;;;;;;;15.61;97.19;100908.63;7399021;19;20022;-66
2022/08/28 03:36:29;;;;;;;12.48;6.05;;;;;;;15.58;96.75;100911.41;7400047;19;20029;-66
2022/08/28 03:39:02;;;;;;;15.05;6.43;;;;;;;15.54;96.71;100904.47;7397103;19;20495;-66
2022/08/28 03:41:32;;;;;;;18.13;6.35;;;;;;;15.52;96.55;100916.03;7397169;19;20023;-66
2022/08/28 03:44:02;;;;;;;19.02;5.40;;;;;;;15.46;96.50;100907.44;7398811;19;20018;-66
2022/08/28 03:46:34;;;;;;;15.48;6.15;;;;;;;15.43;96.42;100919.91;7399813;19;20368;-66
2022/08/28 03:49:04;;;;;;;11.40;5.10;;;;;;;15.39;96.36;100920.97;7399484;19;20112;-66
2022/08/28 03:51:34;;;;;;;15.80;5.53;;;;;;;15.35;96.45;100922.84;7397171;19;20011;-66
2022/08/28 03:54:06;;;;;;;14.55;5.93;;;;;;;15.30;96.66;100920.41;7397392;19;20022;-66
2022/08/28 03:56:34;;;;;;;18.35;6.57;;;;;;;15.25;96.40;100921.50;7399111;19;20032;-66
2022/08/28 03:59:05;;;;;;;15.80;5.32;;;;;;;15.18;96.13;100923.53;7399309;19;20031;-66
2022/08/28 04:01:36;;;;;;;17.42;5.25;;;;;;;15.13;96.62;100925.47;7399392;19;20423;-66
2022/08/28 04:04:06;;;;;;;17.02;5.32;;;;;;;15.07;96.48;100923.91;7398094;19;20086;-66
2022/08/28 04:06:35;;;;;;;14.90;5.22;;;;;;;15.04;96.88;100929.31;7398779;19;20014;-66
2022/08/28 04:09:06;;;;;;;14.68;5.60;;;;;;;15.02;96.82;100932.94;7396418;19;20023;-66
2022/08/28 04:11:41;;;;;;;16.23;6.03;;;;;;;14.97;97.14;100931.34;7397570;19;20039;-66
2022/08/28 04:14:10;;;;;;;11.40;5.05;;;;;;;14.94;96.68;100930.59;7397909;19;20038;-66
2022/08/28 04:16:38;;;;;;;16.13;5.38;;;;;;;14.91;96.73;100930.69;7398406;19;20509;-66
2022/08/28 04:19:07;;;;;;;19.75;5.50;;;;;;;14.87;96.70;100935.22;7398577;19;20035;-66
2022/08/28 04:21:35;;;;;;;16.73;5.43;;;;;;;14.86;97.02;100943.22;7398508;19;20147;-66
2022/08/28 04:24:07;;;;;;;17.23;4.93;;;;;;;14.78;96.92;100944.34;7396868;19;20015;-66
2022/08/28 04:26:36;;;;;;;19.40;5.85;;;;;;;14.76;97.13;100942.66;7398123;19;20010;-66
2022/08/28 04:29:06;;;;;;;13.10;5.07;;;;;;;14.73;97.09;100946.28;7396201;19;20018;-65
2022/08/28 04:31:35;;;;;;;19.63;6.10;;;;;;;14.71;96.91;100953.41;7397183;19;20019;-66
2022/08/28 04:34:07;;;;;;;14.27;5.18;;;;;;;14.66;96.81;100953.56;7396445;19;20026;-66
2022/08/28 04:36:36;;;;;;;18.25;5.43;;;;;;;14.66;97.00;100964.13;7398392;19;20022;-66
2022/08/28 04:39:09;;;;;;;20.23;5.40;;;;;;;14.62;97.07;100962.50;7397975;19;20023;-66
2022/08/28 04:41:38;;;;;;;19.40;5.35;;;;;;;14.63;96.81;100966.00;7396409;19;20021;-66
2022/08/28 04:44:08;;;;;;;18.30;4.95;;;;;;;14.61;97.20;100967.84;7396785;19;20046;-66
2022/08/28 04:46:37;;;;;;;13.00;4.68;;;;;;;14.60;96.99;100972.25;7397812;19;20022;-66
2022/08/28 04:49:06;;;;;;;19.63;4.90;;;;;;;14.58;96.85;100973.22;7396631;19;20078;-66
2022/08/28 04:51:35;;;;;;;11.23;4.68;;;;;;;14.55;96.83;100971.53;7396217;19;20019;-66
2022/08/28 04:54:06;;;;;;;15.32;5.10;;;;;;;14.54;96.80;100974.25;7396005;19;20399;-66
2022/08/28 04:56:35;;;;;;;22.55;4.97;;;;;;;14.49;96.38;100975.28;7397185;19;20498;-66
2022/08/28 04:59:04;;;;;;;18.85;4.28;;;;;;;14.46;96.73;100972.72;7397242;19;20018;-66
2022/08/28 05:01:33;;;;;;;12.38;4.93;;;;;;;14.44;96.53;100974.53;7396914;19;20010;-65
2022/08/28 05:04:03;;;;;;;20.30;6.22;;;;;;;14.42;96.31;100971.09;7395887;19;20018;-66
2022/08/28 05:06:33;;;;;;;30.75;5.97;;;;;;;14.36;95.83;100978.38;7396820;19;20011;-66
2022/08/28 05:09:05;;;;;;;18.27;5.43;;;;;;;14.32;96.37;100974.97;7397533;19;20022;-66
2022/08/28 05:11:36;;;;;;;19.85;5.18;;;;;;;14.29;96.48;100981.22;7395948;19;20031;-66
2022/08/28 05:14:08;;;;;;;15.38;4.72;;;;;;;14.28;96.13;100975.97;7396161;19;20019;-66
2022/08/28 05:16:44;;;;;;;22.05;5.28;;;;;;;14.25;96.70;100976.94;7397026;19;20387;-66
2022/08/28 05:19:13;;;;;;;16.30;4.35;;;;;;;14.25;96.57;100978.72;7396445;19;20442;-66
2022/08/28 05:21:42;;;;;;;20.55;5.38;;;;;;;14.24;96.68;100982.28;7396619;19;20022;-66
2022/08/28 05:24:12;;;;;;;15.60;5.57;;;;;;;14.24;96.68;100988.44;7395207;19;20025;-65
2022/08/28 05:26:43;;;;;;;22.02;5.35;;;;;;;14.23;96.38;100981.44;7395707;19;20014;-65
2022/08/28 05:29:13;;;;;;;24.40;5.03;;;;;;;14.22;96.62;100981.47;7396482;19;20018;-65
2022/08/28 05:31:42;;;;;;;15.50;5.38;;;;;;;14.21;96.13;100983.25;7394369;19;20022;-66
2022/08/28 05:34:11;;;;;;;17.23;5.25;;;;;;;14.22;96.49;100987.59;7394205;19;20482;-66
2022/08/28 05:36:53;;;;;;;18.88;5.18;;;;;;;14.22;96.49;100986.75;7394009;19;20074;-65
2022/08/28 05:39:21;;;;;;;15.80;5.95;;;;;;;14.22;96.33;100990.25;7396378;19;20027;-66
2022/08/28 05:41:53;;;;;;;16.75;4.75;;;;;;;14.23;96.39;100989.34;7395418;19;20018;-66
2022/08/28 05:44:21;;;;;;;17.70;5.07;;;;;;;14.23;95.97;100983.19;7394029;19;20368;-65
2022/08/28 05:46:51;;;;;;;18.25;5.28;;;;;;;14.24;95.89;100992.81;7395377;19;20503;-65
2022/08/28 05:49:20;;;;;;;15.57;5.05;;;;;;;14.22;95.80;100990.25;7394143;19;20035;-65
2022/08/28 05:51:51;;;;;;;19.35;4.75;;;;;;;14.24;95.92;100984.91;7394363;19;20031;-65
2022/08/28 05:54:19;;;;;;;11.93;5.28;;;;;;;14.25;95.76;100984.84;7394258;19;20032;-65
2022/08/28 05:56:48;;;;;;;20.33;6.35;;;;;;;14.28;96.08;100989.16;7393937;19;20023;-65
2022/08/28 05:59:19;;;;;;;13.00;5.30;;;;;;;14.31;95.44;100991.72;7395561;19;20060;-65
2022/08/28 06:01:50;;;;;;;22.33;5.82;;;;;;;14.34;95.59;100987.22;7393472;19;20018;-65
2022/08/28 06:04:22;;;;;;;16.50;5.47;;;;;;;14.36;95.16;100988.94;7394315;19;20022;-65
2022/08/28 06:06:50;;;;;;;21.48;4.90;;;;;;;14.36;95.08;100987.16;7393319;19;20014;-65
2022/08/28 06:09:21;;;;;;;15.68;4.78;;;;;;;14.36;94.78;101000.34;7395936;19;20083;-65
2022/08/28 06:11:50;;;;;;;28.13;5.88;;;;;;;14.37;94.91;101010.00;7393663;19;20028;-65
2022/08/28 06:14:22;;;;;;;12.60;5.03;;;;;;;14.38;94.92;101010.84;7393591;19;20433;-65
2022/08/28 06:16:53;;;;;;;18.48;5.53;;;;;;;14.41;95.43;101013.41;7395385;19;20025;-65
2022/08/28 06:19:24;;;;;;;19.85;5.45;;;;;;;14.43;94.58;101009.78;7395131;19;20032;-67
2022/08/28 06:21:57;;;;;;;16.98;5.50;;;;;;;14.43;93.99;101027.38;7394104;19;20364;-64
2022/08/28 06:24:32;;;;;;;11.90;5.03;;;;;;;14.44;94.19;101018.56;7392790;19;20018;-65
2022/08/28 06:27:02;;;;;;;15.32;5.43;;;;;;;14.45;93.68;101015.00;7394334;19;20058;-65
2022/08/28 06:29:33;;;;;;;17.88;5.50;;;;;;;14.44;94.29;101014.13;7394612;19;20028;-65
2022/08/28 06:32:03;;;;;;;22.10;6.18;;;;;;;14.47;94.40;101010.56;7392912;19;20015;-65
2022/08/28 06:34:32;;;;;;;23.02;6.75;;;;;;;14.50;94.09;101019.22;7392699;19;20031;-65
2022/08/28 06:37:00;;;;;;;12.80;5.35;;;;;;;14.54;94.20;101019.13;7392078;19;20414;-65
2022/08/28 06:39:29;;;;;;;20.67;7.18;;;;;;;14.56;93.37;101025.19;7392330;19;20015;-65
2022/08/28 06:41:57;;;;;;;13.93;5.80;;;;;;;14.56;93.60;101027.84;7391937;19;20479;-65
2022/08/28 06:44:26;;;;;;;17.45;6.25;;;;;;;14.61;94.02;101028.56;7392835;19;20035;-65
2022/08/28 06:46:57;;;;;;;16.75;5.75;;;;;;;14.64;93.51;101025.81;7393838;19;20021;-65
2022/08/28 06:49:26;;;;;;;15.30;6.10;;;;;;;14.70;93.87;101035.31;7393809;19;20418;-65
2022/08/28 06:51:55;;;;;;;17.10;6.35;;;;;;;14.76;92.96;101035.09;7392856;19;20014;-65
2022/08/28 06:54:23;;;;;;;13.95;6.05;;;;;;;14.82;93.24;101048.09;7392288;19;20378;-65
2022/08/28 06:56:52;;;;;;;17.15;6.35;;;;;;;14.82;91.56;101046.34;7393915;19;20023;-65
2022/08/28 06:59:21;;;;;;;17.80;7.75;;;;;;;14.84;92.20;101054.22;7391762;19;20018;-66
2022/08/28 07:01:53;;;;;;;20.40;6.28;;;;;;;14.87;92.92;101054.09;7391716;19;20022;-65
2022/08/28 07:04:24;;;;;;;20.42;7.78;;;;;;;14.93;92.60;101058.31;7391219;19;20014;-66
2022/08/28 07:06:52;;;;;;;13.20;6.60;;;;;;;15.01;92.22;101066.81;7392124;19;20545;-65
2022/08/28 07:09:21;;;;;;;15.82;6.45;;;;;;;15.04;91.06;101074.66;7393822;19;20018;-65
2022/08/28 07:11:49;;;;;;;22.88;7.40;;;;;;;15.05;91.07;101070.22;7393477;19;20022;-65
2022/08/28 07:14:18;;;;;;;19.60;6.78;;;;;;;15.06;91.10;101059.59;7398880;19;20019;-65
2022/08/28 07:16:47;;;;;;;20.25;7.07;;;;;;;15.01;90.10;101072.09;7398501;19;20015;-65
2022/08/28 07:19:15;;;;;;;16.65;6.85;;;;;;;15.05;90.29;101064.94;7400033;19;20015;-65
2022/08/28 07:21:48;;;;;;;18.95;7.00;;;;;;;15.04;90.85;101069.38;7401309;19;20032;-65
2022/08/28 07:24:18;;;;;;;12.75;6.28;;;;;;;15.05;89.93;101065.81;7399231;19;20015;-65
2022/08/28 07:26:48;;;;;;;19.55;8.20;;;;;;;15.06;89.62;101071.94;7399948;19;20018;-65
2022/08/28 07:29:17;;;;;;;22.63;6.95;;;;;;;15.08;90.29;101059.56;7399839;19;20014;-65
2022/08/28 07:31:47;;;;;;;20.30;6.95;;;;;;;15.09;90.25;101067.44;7398995;19;20025;-65
2022/08/28 07:34:18;;;;;;;12.85;6.95;;;;;;;15.17;90.14;101068.94;7397830;19;20493;-65
2022/08/28 07:36:50;;;;;;;15.45;7.13;;;;;;;15.18;89.68;101073.28;7397274;19;20003;-65
2022/08/28 07:39:19;;;;;;;17.98;7.38;;;;;;;15.18;90.06;101078.56;7397923;19;20010;-65
2022/08/28 07:41:49;;;;;;;17.85;7.25;;;;;;;15.20;90.09;101082.03;7396853;19;20010;-65
2022/08/28 07:47:02;;;;;;;27.95;7.85;;;;;;;15.25;90.27;101074.78;7399676;19;20014;-65
2022/08/28 07:49:32;;;;;;;14.63;8.00;;;;;;;15.26;89.11;101073.88;7400120;19;20042;-65
2022/08/28 07:52:04;;;;;;;18.52;7.43;;;;;;;15.30;89.62;101086.06;7398317;19;20379;-66
2022/08/28 07:54:34;;;;;;;19.02;7.57;;;;;;;15.35;89.77;101083.25;7398095;19;20022;-65
2022/08/28 07:57:03;;;;;;;12.23;6.70;;;;;;;15.40;89.65;101078.66;7396584;19;20014;-65
2022/08/28 07:59:33;;;;;;;13.00;6.57;;;;;;;15.41;89.28;101081.25;7399713;19;20423;-66
2022/08/28 08:02:02;;;;;;;14.40;6.90;;;;;;;15.46;89.33;101081.09;7396846;19;20038;-66
2022/08/28 08:04:30;;;;;;;13.77;7.25;;;;;;;15.53;89.16;101081.72;7397141;19;20485;-66
2022/08/28 08:06:59;;;;;;;16.00;6.35;;;;;;;15.60;89.00;101078.78;7398668;19;20023;-65
2022/08/28 08:09:30;;;;;;;19.40;6.78;;;;;;;15.69;88.67;101082.88;7396303;19;20513;-66
2022/08/28 08:11:59;;;;;;;19.55;7.00;;;;;;;15.77;88.56;101083.44;7398054;19;20015;-66
2022/08/28 08:14:27;;;;;;;15.07;6.03;;;;;;;15.87;88.38;101080.47;7396408;19;20032;-66
2022/08/28 08:16:56;;;;;;;14.10;6.18;;;;;;;15.93;87.69;101085.53;7398051;19;20022;-66
2022/08/28 08:19:24;;;;;;;13.65;6.25;;;;;;;15.98;87.49;101086.22;7398284;19;20022;-66
2022/08/28 08:21:53;;;;;;;16.75;6.55;;;;;;;16.04;87.98;101091.28;7398117;19;20027;-66
2022/08/28 08:24:24;;;;;;;23.20;8.13;;;;;;;16.07;86.53;101091.13;7395907;19;20041;-66
2022/08/28 08:26:58;;;;;;;13.43;6.43;;;;;;;16.08;87.02;101089.38;7398182;19;20378;-66
2022/08/28 08:29:26;;;;;;;13.65;6.72;;;;;;;16.11;86.72;101106.00;7396399;19;20039;-66
2022/08/28 08:32:03;;;;;;;18.58;6.32;;;;;;;16.08;86.07;101090.22;7397156;19;20018;-65
2022/08/28 08:34:32;;;;;;;19.10;7.25;;;;;;;16.04;85.94;101101.84;7395869;19;20495;-66
2022/08/28 08:37:01;;;;;;;10.32;6.53;;;;;;;16.07;86.80;101093.78;7394793;19;20007;-65
2022/08/28 08:39:29;;;;;;;17.90;6.88;;;;;;;16.10;86.22;101101.63;7394828;19;20015;-65
2022/08/28 08:42:03;;;;;;;21.33;7.53;;;;;;;16.14;86.31;101105.00;7397462;19;20022;-66
2022/08/28 08:44:35;;;;;;;13.07;6.55;;;;;;;16.19;85.59;101104.81;7396456;19;20035;-66
2022/08/28 08:47:14;;;;;;;12.77;6.57;;;;;;;16.20;84.59;101104.78;7397546;19;20507;-66
2022/08/28 08:49:51;;;;;;;14.20;6.30;;;;;;;16.20;85.06;101104.78;7398201;19;20014;-66
2022/08/28 08:52:41;;;;;;;20.52;7.35;;;;;;;16.28;85.05;101107.13;7397070;19;20014;-66
2022/08/28 08:55:24;;;;;;;17.67;6.78;;;;;;;16.34;84.06;101106.00;7395627;19;20023;-66
2022/08/28 08:58:09;;;;;;;14.30;6.70;;;;;;;16.40;83.67;101105.75;7397634;19;20021;-65
2022/08/28 09:00:45;;;;;;;17.05;6.80;;;;;;;16.47;84.11;101114.28;7395743;19;20023;-66
2022/08/28 09:03:17;;;;;;;17.00;6.75;;;;;;;16.49;84.57;101110.69;7394814;19;20021;-66
2022/08/28 09:05:51;;;;;;;17.10;7.03;;;;;;;16.52;83.89;101115.84;7397154;19;20023;-66
2022/08/28 09:08:31;;;;;;;;;;;;;;;16.53;83.03;101125.53;7398488;19;20019;-65
2022/08/28 09:11:09;;;;;;;15.48;6.45;;;;;;;16.57;83.39;101123.63;7395464;19;19922;-66
2022/08/28 09:13:55;;;;;;;17.58;5.78;;;;;;;16.61;83.83;101118.09;7394920;19;20039;-66
2022/08/28 09:16:31;;;;;;;14.43;6.78;;;;;;;16.63;83.03;101123.38;7396063;19;20034;-66
2022/08/28 09:19:01;;;;;;;21.70;7.93;;;;;;;16.68;82.59;101120.50;7396608;19;20019;-65
2022/08/28 09:21:33;;;;;;;12.43;6.28;;;;;;;16.71;83.91;101129.19;7396600;19;20010;-66
2022/08/28 09:24:04;;;;;;;14.93;6.40;;;;;;;16.75;83.17;101122.84;7395970;19;20028;-66
2022/08/28 09:26:32;;;;;;;11.50;5.78;;;;;;;16.78;82.78;101122.72;7396059;19;20070;-68
2022/08/28 09:29:06;;;;;;;15.07;6.78;;;;;;;16.86;82.83;101130.34;7396079;19;20010;-67
2022/08/28 09:31:39;;;;;;;16.23;6.13;;;;;;;16.92;82.59;101130.13;7395700;19;20027;-67
2022/08/28 09:34:27;;;;;;;12.20;6.20;;;;;;;16.98;82.11;101134.28;7395022;19;20477;-67
2022/08/28 09:36:57;;;;;;;15.63;6.53;;;;;;;17.03;82.13;101137.59;7391701;19;20024;-68
2022/08/28 09:39:34;;;;;;;21.25;6.53;;;;;;;17.05;81.56;101138.41;7395303;19;20041;-67
2022/08/28 09:44:56;;;;;;;15.63;6.47;;;;;;;17.04;81.45;101136.69;7394731;19;20018;-66
2022/08/28 09:47:40;;;;;;;17.83;5.95;;;;;;;17.05;80.48;101148.16;7395534;19;20489;-67
2022/08/28 09:50:34;;;;;;;16.25;6.40;;;;;;;17.09;81.11;101142.66;7396015;19;20027;-66
2022/08/28 09:53:19;;;;;;;16.53;6.07;;;;;;;17.15;81.59;101140.66;7394032;19;20010;-67
2022/08/28 09:55:59;;;;;;;16.52;6.88;;;;;;;17.18;80.36;101143.19;7397869;19;20458;-69
2022/08/28 09:58:35;;;;;;;14.85;6.43;;;;;;;17.22;81.06;101140.31;7397121;19;20029;-68
2022/08/28 10:01:31;;;;;;;17.98;7.72;;;;;;;17.25;80.41;101136.72;7396137;19;20074;-64
2022/08/28 10:04:18;;;;;;;15.35;7.55;;;;;;;17.30;81.42;101132.06;7393656;19;20019;-66
2022/08/28 10:06:53;;;;;;;14.13;6.30;;;;;;;17.44;79.39;101131.47;7394062;19;20038;-66
2022/08/28 10:09:29;;;;;;;8.73;5.13;;;;;;;17.54;80.00;101134.53;7395689;19;20014;-66
2022/08/28 10:12:07;;;;;;;10.55;5.35;;;;;;;17.61;79.75;101130.69;7394535;19;20504;-67
2022/08/28 10:14:50;;;;;;;14.52;5.95;;;;;;;17.69;77.66;101133.00;7393894;19;20105;-67
2022/08/28 10:17:31;;;;;;;11.33;5.10;;;;;;;17.64;77.19;101138.53;7395627;19;20010;-67
2022/08/28 10:20:09;;;;;;;12.35;5.05;;;;;;;17.66;79.25;101133.16;7395310;19;20074;-66
2022/08/28 10:22:46;;;;;;;12.25;5.88;;;;;;;17.66;77.24;101143.75;7394624;19;20022;-67
2022/08/28 10:25:25;;;;;;;10.57;5.18;;;;;;;17.69;78.10;101135.63;7392695;19;20022;-66
2022/08/28 10:28:10;;;;;;;15.75;5.50;;;;;;;17.74;78.48;101137.16;7394765;19;20018;-66
2022/08/28 10:30:46;;;;;;;13.02;4.97;;;;;;;17.82;78.36;101141.25;7394408;19;20026;-69
2022/08/28 10:33:30;;;;;;;13.43;4.80;;;;;;;17.91;77.74;101136.38;7392176;19;20014;-66
2022/08/28 10:36:02;;;;;;;;;;;;;;;18.03;77.79;101139.44;7394264;19;20015;-68
2022/08/28 10:38:39;;;;;;;9.50;4.90;;;;;;;18.12;77.91;101146.97;7394455;19;19922;-65
2022/08/28 10:41:11;;;;;;;15.32;5.03;;;;;;;18.19;77.50;101140.44;7393997;19;20007;-65
2022/08/28 10:43:45;;;;;;;8.38;4.47;;;;;;;18.27;77.24;101148.03;7393851;19;20035;-65
2022/08/28 10:46:18;;;;;;;11.23;4.57;;;;;;;18.36;77.19;101149.38;7394592;19;20024;-66
2022/08/28 10:48:56;;;;;;;14.38;5.05;;;;;;;18.45;74.75;101151.63;7401266;19;20018;-65
2022/08/28 10:51:34;;;;;;;22.33;4.70;;;;;;;18.56;75.92;101145.75;7401460;19;20023;-65
2022/08/28 10:54:07;;;;;;;11.75;4.47;;;;;;;18.66;75.87;101143.53;7398622;19;20023;-66
2022/08/28 10:56:41;;;;;;;11.15;4.68;;;;;;;18.76;75.26;101142.13;7398504;19;20042;-66
2022/08/28 10:59:10;;;;;;;;;;;;;;;18.84;71.63;101147.06;7400112;19;20022;-66
2022/08/28 11:01:43;;;;;;;8.88;4.40;;;;;;;18.87;72.84;101157.56;7398084;19;19919;-66
2022/08/28 11:04:20;;;;;;;11.73;4.18;;;;;;;18.89;72.99;101145.91;7399151;19;20534;-65
2022/08/28 11:06:52;;;;;;;19.73;4.65;;;;;;;18.95;72.43;101160.69;7397946;19;20489;-65
2022/08/28 11:09:32;;;;;;;12.70;4.38;;;;;;;18.97;71.24;101150.84;7401382;19;20026;-66
2022/08/28 11:12:02;;;;;;;13.40;4.35;;;;;;;19.02;72.57;101156.81;7398444;19;20029;-65
2022/08/28 11:14:34;;;;;;;14.88;5.05;;;;;;;19.10;72.04;101159.06;7398913;19;20489;-65
2022/08/28 11:17:05;;;;;;;10.77;4.65;;;;;;;19.18;71.94;101153.34;7400714;19;20018;-65
2022/08/28 11:20:06;;;;;;;9.40;3.83;;;;;;;19.26;70.09;101159.16;7400434;19;20490;-65
2022/08/28 11:22:40;;;;;;;11.20;4.63;;;;;;;19.28;70.46;101169.69;7400761;19;20021;-67
2022/08/28 11:25:18;;;;;;;9.57;4.28;;;;;;;19.35;70.36;101169.31;7397875;19;20023;-67
2022/08/28 11:28:16;;;;;;;11.95;4.80;;;;;;;19.37;70.80;101172.75;7400814;19;20022;-69
2022/08/28 11:30:49;;;;;;;12.32;4.88;;;;;;;19.44;69.91;101172.44;7400538;19;20127;-66
2022/08/28 11:33:37;;;;;;;13.07;4.55;;;;;;;19.54;69.85;101173.66;7398523;19;20481;-66
2022/08/28 11:36:12;;;;;;;12.57;4.13;;;;;;;19.64;70.46;101177.56;7397235;19;20031;-65
2022/08/28 11:39:04;;;;;;;11.98;4.05;;;;;;;19.71;69.46;101167.44;7400116;19;20038;-65
2022/08/28 11:41:41;;;;;;;12.57;4.30;;;;;;;19.81;68.45;101165.16;7399408;19;20402;-67
2022/08/28 11:44:27;;;;;;;12.98;4.00;;;;;;;19.87;68.98;101162.19;7398350;19;20031;-67
2022/08/28 11:46:57;;;;;;;12.73;4.63;;;;;;;19.94;68.47;101168.03;7398940;19;20477;-66